Strona główna
METAR-TAF:

METAR-TAF

Lotnisko :

Penn Yan Airport

Penn Yan, Nowy Jork, Stany Zjednoczone

Szerokość geograficzna: 42-38-35N, Długość geograficzna: 077-02-58W, wysokość: 275 m

Aktualna obserwacja pogody

Raport powstał 23 minut temu, godzina 00:53 UTC
Wiatr 3 kt z kierunków zmiennych
Temperatura 9°C
Wilgotność 81%
Ciśnienie 1017 hPa
Widzialność: 16.1 km
Mało chmury na wysokości 2100 ft
Mało chmury na wysokości 3000 ft
Zachmurzenie całkowite na wysokości 6500 ft

METAR: KPEO 050053Z AUTO VRB03KT 10SM FEW021 FEW030 OVC065 09/06 A3002 RMK AO2 SLP171 T00940061

czas: 21:16 (01:16 UTC)


TAF: brakujący

Obserwacja i prognoza pogody dla ponad 4000 lotnisk (raport METAR i TAF).

Dostępne stacje oznaczono żółtymi i czerwonymi punktami na mapie.

Najedź kursorem aby zobaczyć nazwę stacji.

Kliknij aby zobaczyć obserwacje i prognozy pogody.

Aby zmienić mapę: kliknij na zielony przycisk z czarnym krzyżykiem, aby powiększyć; na zielony przycisk z myślnikiem, aby pomniejszyć; na zielone strzałki, aby przejść do map sąsiednich.


METAR-TAF: